Time;durP1;ratioP1;P1;durP2;ratioP2;P2;SDS_P1;SDS_P2;PMS_P1;PMS_P2;Temp;Humidity;BMP_temperature;BMP_pressure;BME280_temperature;BME280_humidity;BME280_pressure;Samples;Min_cycle;Max_cycle;Signal;HPM_P1;HPM_P2
2024/01/02 00:02:42;;;;;;;2.33;1.05;;;;;;;7.07;94.90;100137.78;4965282;28;20188;-68
2024/01/02 00:05:20;;;;;;;0.90;0.57;;;;;;;6.97;94.94;100143.53;4971899;28;20737;-68
2024/01/02 00:07:54;;;;;;;1.38;1.13;;;;;;;6.94;95.51;100143.94;4974580;28;20199;-67
2024/01/02 00:10:28;;;;;;;2.67;0.95;;;;;;;6.97;94.76;100153.47;4974616;28;20226;-68
2024/01/02 00:13:03;;;;;;;1.10;0.70;;;;;;;6.95;94.21;100144.75;4976435;28;20196;-68
2024/01/02 00:15:36;;;;;;;3.55;1.30;;;;;;;7.00;94.54;100136.94;4971093;28;20581;-69
2024/01/02 00:18:09;;;;;;;1.42;1.33;;;;;;;7.12;93.98;100145.25;4965183;28;20200;-67
2024/01/02 00:20:45;;;;;;;1.00;0.70;;;;;;;6.93;94.49;100144.13;4961090;28;20259;-69
2024/01/02 00:23:23;;;;;;;2.65;0.80;;;;;;;6.89;94.15;100137.47;4961607;28;20762;-66
2024/01/02 00:25:56;;;;;;;1.20;0.75;;;;;;;6.86;94.44;100145.94;4962817;28;20748;-68
2024/01/02 00:28:30;;;;;;;1.10;0.82;;;;;;;6.81;95.17;100138.47;4972454;28;20203;-69
2024/01/02 00:31:03;;;;;;;2.20;1.52;;;;;;;7.02;94.55;100129.47;4965442;28;20191;-68
2024/01/02 00:33:35;;;;;;;0.85;0.57;;;;;;;7.01;93.83;100133.22;4960314;28;20208;-67
2024/01/02 00:36:15;;;;;;;2.95;1.50;;;;;;;6.95;94.65;100139.38;4967214;28;20251;-68
2024/01/02 00:38:50;;;;;;;2.58;1.13;;;;;;;6.98;94.11;100138.97;4974727;28;20210;-66
2024/01/02 00:41:22;;;;;;;1.13;0.68;;;;;;;6.96;94.65;100135.69;4950507;28;20196;-67
2024/01/02 00:43:54;;;;;;;2.72;1.33;;;;;;;6.83;95.55;100133.72;4964646;28;20570;-67
2024/01/02 00:46:29;;;;;;;1.00;0.73;;;;;;;6.89;95.43;100130.25;4971357;28;20307;-68
2024/01/02 00:49:04;;;;;;;1.83;1.63;;;;;;;6.81;96.08;100129.56;4972592;28;20689;-69
2024/01/02 00:51:41;;;;;;;2.38;0.70;;;;;;;6.89;96.24;100129.41;4972154;28;20200;-67
2024/01/02 00:54:13;;;;;;;1.17;0.85;;;;;;;6.78;96.84;100127.25;4970662;28;20642;-67
2024/01/02 00:56:47;;;;;;;0.90;0.80;;;;;;;6.82;97.57;100118.63;4974531;28;20304;-68
2024/01/02 00:59:22;;;;;;;2.10;1.50;;;;;;;6.87;97.24;100120.72;4969054;28;20203;-69
2024/01/02 01:01:57;;;;;;;12.52;2.03;;;;;;;6.85;97.91;100106.63;4968740;28;20659;-68
2024/01/02 01:04:28;;;;;;;1.20;0.90;;;;;;;6.80;98.03;100101.00;4960048;28;20195;-69
2024/01/02 01:07:07;;;;;;;34.63;1.58;;;;;;;6.79;98.22;100102.03;4974329;28;20194;-69
2024/01/02 01:09:41;;;;;;;1.33;0.90;;;;;;;6.83;97.82;100103.28;4973961;28;20246;-69
2024/01/02 01:12:13;;;;;;;2.95;1.00;;;;;;;6.85;98.69;100104.78;4969951;28;20195;-68
2024/01/02 01:14:48;;;;;;;1.35;1.00;;;;;;;6.85;98.53;100106.63;4985508;28;20211;-68
2024/01/02 01:17:21;;;;;;;1.40;1.20;;;;;;;6.78;98.95;100111.13;4970257;28;20215;-66
2024/01/02 01:19:55;;;;;;;13.40;2.08;;;;;;;6.75;98.54;100100.78;4961584;28;20282;-67
2024/01/02 01:22:35;;;;;;;1.42;0.95;;;;;;;6.73;99.61;100106.34;4970521;28;20190;-69
2024/01/02 01:25:08;;;;;;;1.00;0.85;;;;;;;6.89;99.44;100102.50;4963791;28;20635;-68
2024/01/02 01:27:41;;;;;;;5.10;1.55;;;;;;;6.77;98.64;100098.72;4971209;28;20209;-69
2024/01/02 01:30:19;;;;;;;1.70;1.10;;;;;;;6.62;99.23;100106.06;4963186;28;20346;-68
2024/01/02 01:32:53;;;;;;;1.88;1.40;;;;;;;6.55;100.00;100096.06;4969431;28;20250;-68
2024/01/02 01:35:25;;;;;;;1.23;0.90;;;;;;;6.68;99.88;100086.47;4968532;28;20222;-68
2024/01/02 01:38:08;;;;;;;3.08;1.02;;;;;;;6.67;99.22;100093.69;4974154;28;20664;-68
2024/01/02 01:40:41;;;;;;;1.70;1.00;;;;;;;6.49;100.00;100090.66;4969884;28;20196;-69
2024/01/02 01:43:15;;;;;;;0.90;0.73;;;;;;;6.40;100.00;100092.66;4972326;28;20203;-70
2024/01/02 01:45:49;;;;;;;9.05;0.90;;;;;;;6.39;100.00;100100.94;4956973;28;20219;-68
2024/01/02 01:48:22;;;;;;;1.38;0.88;;;;;;;6.17;100.00;100092.03;4971999;28;20199;-68
2024/01/02 01:50:56;;;;;;;2.28;1.65;;;;;;;6.01;100.00;100093.13;4969734;28;20199;-68
2024/01/02 01:53:34;;;;;;;2.20;0.80;;;;;;;6.05;100.00;100088.22;4963993;28;20614;-69
2024/01/02 01:56:07;;;;;;;2.67;2.47;;;;;;;6.08;100.00;100087.84;4968910;28;20287;-69
2024/01/02 01:58:41;;;;;;;4.10;2.63;;;;;;;5.99;100.00;100091.69;4967586;28;20191;-69
2024/01/02 02:01:18;;;;;;;3.40;0.82;;;;;;;5.90;100.00;100090.16;4964778;28;20203;-68
2024/01/02 02:03:54;;;;;;;1.40;1.30;;;;;;;5.86;100.00;100095.00;4966864;28;20261;-68
2024/01/02 02:06:26;;;;;;;1.33;0.90;;;;;;;6.00;100.00;100096.03;4953699;29;20219;-68
2024/01/02 02:09:03;;;;;;;1.33;0.70;;;;;;;5.91;100.00;100091.78;4965314;28;20204;-68
2024/01/02 02:11:38;;;;;;;3.33;1.55;;;;;;;5.90;100.00;100095.50;4962697;28;20734;-69
2024/01/02 02:14:12;;;;;;;1.75;0.80;;;;;;;5.83;100.00;100078.47;4969790;28;20250;-68
2024/01/02 02:16:45;;;;;;;4.10;1.90;;;;;;;5.94;100.00;100094.09;4972690;28;20219;-69
2024/01/02 02:19:18;;;;;;;1.10;0.80;;;;;;;5.92;100.00;100088.09;4968354;28;20196;-68
2024/01/02 02:21:53;;;;;;;7.32;0.68;;;;;;;5.91;100.00;100087.25;4965307;28;20207;-68
2024/01/02 02:24:32;;;;;;;1.58;1.45;;;;;;;5.90;100.00;100090.16;4962938;28;20556;-67
2024/01/02 02:27:08;;;;;;;1.58;0.82;;;;;;;5.71;100.00;100085.38;4966815;28;20291;-68
2024/01/02 02:29:40;;;;;;;1.00;0.82;;;;;;;5.68;100.00;100087.41;4961498;28;20740;-68
2024/01/02 02:32:13;;;;;;;11.57;1.60;;;;;;;5.50;100.00;100081.63;4955894;28;20290;-69
2024/01/02 02:34:50;;;;;;;2.10;1.90;;;;;;;5.47;100.00;100081.97;4961512;28;20630;-68
2024/01/02 02:37:23;;;;;;;3.17;2.88;;;;;;;5.17;100.00;100075.03;4970872;28;20199;-66
2024/01/02 02:40:03;;;;;;;3.38;1.73;;;;;;;4.99;100.00;100079.94;4963491;28;20219;-68
2024/01/02 02:42:40;;;;;;;2.25;1.00;;;;;;;5.06;100.00;100076.34;4959471;28;20668;-69
2024/01/02 02:45:12;;;;;;;1.35;0.70;;;;;;;5.04;100.00;100074.84;4967794;28;20223;-69
2024/01/02 02:47:47;;;;;;;0.90;0.50;;;;;;;4.88;100.00;100067.00;4962507;28;20809;-68
2024/01/02 02:50:23;;;;;;;0.90;0.77;;;;;;;4.87;100.00;100062.66;4963724;28;20199;-66
2024/01/02 02:52:59;;;;;;;1.10;0.90;;;;;;;4.74;100.00;100053.41;4968414;28;20202;-68
2024/01/02 02:55:38;;;;;;;0.90;0.50;;;;;;;4.73;100.00;100057.13;4968423;28;20243;-69
2024/01/02 02:58:11;;;;;;;19.48;2.75;;;;;;;4.70;100.00;100046.75;4962210;28;20246;-68
2024/01/02 03:00:46;;;;;;;2.63;1.63;;;;;;;4.70;100.00;100038.72;4965226;28;20219;-67
2024/01/02 03:03:21;;;;;;;2.65;0.80;;;;;;;4.60;100.00;100038.16;4965382;28;20290;-67
2024/01/02 03:05:57;;;;;;;1.83;1.42;;;;;;;4.64;100.00;100033.28;4967994;28;20223;-68
2024/01/02 03:08:31;;;;;;;6.00;1.88;;;;;;;4.63;100.00;100037.81;4969213;28;20288;-67
2024/01/02 03:11:07;;;;;;;1.33;1.23;;;;;;;4.66;100.00;100029.38;4961121;28;20282;-69
2024/01/02 03:13:40;;;;;;;1.35;0.98;;;;;;;4.42;100.00;100029.66;4960209;28;20210;-68
2024/01/02 03:16:14;;;;;;;2.90;1.17;;;;;;;4.42;100.00;100018.94;4959411;28;20227;-68
2024/01/02 03:18:47;;;;;;;2.95;1.00;;;;;;;4.44;100.00;100021.44;4972047;28;20286;-68
2024/01/02 03:21:27;;;;;;;1.33;1.23;;;;;;;4.57;100.00;100011.75;4955470;28;20188;-65
2024/01/02 03:24:02;;;;;;;1.15;1.05;;;;;;;4.59;100.00;100009.72;4962080;28;20591;-67
2024/01/02 03:26:43;;;;;;;0.90;0.60;;;;;;;4.44;100.00;100011.56;4972374;28;20227;-68
2024/01/02 03:29:16;;;;;;;1.23;0.90;;;;;;;4.41;100.00;100003.03;4971275;28;20199;-68
2024/01/02 03:31:50;;;;;;;2.00;1.67;;;;;;;4.36;100.00;100003.59;4962939;28;20287;-67
2024/01/02 03:34:24;;;;;;;1.27;0.90;;;;;;;4.30;100.00;99993.63;4968496;28;20286;-67
2024/01/02 03:36:57;;;;;;;1.80;1.02;;;;;;;4.35;100.00;99988.56;4963772;28;20220;-66
2024/01/02 03:39:34;;;;;;;3.45;2.83;;;;;;;4.48;100.00;99977.19;4967975;28;20294;-67
2024/01/02 03:42:36;;;;;;;2.45;1.95;;;;;;;4.34;100.00;99981.53;4963981;28;20233;-67
2024/01/02 03:45:11;;;;;;;2.65;2.45;;;;;;;4.32;100.00;99975.53;4967919;28;20250;-68
2024/01/02 03:47:46;;;;;;;1.65;0.90;;;;;;;4.33;100.00;99977.19;4965964;28;20195;-67
2024/01/02 03:50:18;;;;;;;4.82;3.22;;;;;;;4.31;100.00;99968.50;4970823;28;20199;-67
2024/01/02 03:52:55;;;;;;;1.70;1.25;;;;;;;4.35;100.00;99969.81;4958606;28;20231;-67
2024/01/02 03:55:29;;;;;;;5.50;2.40;;;;;;;4.27;100.00;99964.53;4970785;28;20231;-68
2024/01/02 03:58:05;;;;;;;1.45;1.13;;;;;;;4.34;100.00;99954.75;4975280;28;20249;-67
2024/01/02 04:00:46;;;;;;;1.35;1.25;;;;;;;4.17;100.00;99950.56;4963593;28;20189;-68
2024/01/02 04:03:21;;;;;;;1.00;0.90;;;;;;;4.27;100.00;99951.13;4975525;28;20627;-67
2024/01/02 04:05:56;;;;;;;5.47;1.13;;;;;;;4.30;100.00;99945.44;4967487;28;20231;-67
2024/01/02 04:08:30;;;;;;;5.65;1.33;;;;;;;4.35;100.00;99938.50;4966982;28;20199;-68
2024/01/02 04:11:02;;;;;;;1.70;0.80;;;;;;;4.36;100.00;99928.59;4972394;28;20196;-68
2024/01/02 04:13:43;;;;;;;6.35;1.95;;;;;;;4.24;100.00;99924.75;4966698;28;20251;-68
2024/01/02 04:16:17;;;;;;;0.80;0.50;;;;;;;4.07;100.00;99928.59;4965206;28;20212;-68
2024/01/02 04:18:52;;;;;;;2.17;1.35;;;;;;;4.14;100.00;99925.00;4969983;28;20226;-68
2024/01/02 04:21:26;;;;;;;1.05;0.77;;;;;;;4.07;100.00;99917.88;4970593;28;20310;-68
2024/01/02 04:23:59;;;;;;;1.75;1.02;;;;;;;4.08;100.00;99923.06;4969572;28;20294;-68
2024/01/02 04:26:35;;;;;;;4.22;1.08;;;;;;;4.14;100.00;99919.66;4958440;28;20713;-68
2024/01/02 04:29:11;;;;;;;1.67;1.52;;;;;;;4.00;100.00;99912.44;4961296;28;20200;-68
2024/01/02 04:31:47;;;;;;;2.05;1.90;;;;;;;4.09;100.00;99910.50;4964898;28;20188;-69
2024/01/02 04:34:19;;;;;;;4.28;1.90;;;;;;;4.16;100.00;99906.09;4964332;28;20282;-67
2024/01/02 04:36:51;;;;;;;1.90;1.13;;;;;;;4.11;100.00;99900.47;4971095;28;20211;-69
2024/01/02 04:39:24;;;;;;;1.98;1.10;;;;;;;4.05;100.00;99901.19;4974291;28;20198;-68
2024/01/02 04:42:00;;;;;;;1.42;0.88;;;;;;;4.04;100.00;99899.53;4971406;28;20200;-69
2024/01/02 04:44:38;;;;;;;1.75;1.15;;;;;;;3.96;100.00;99903.13;4959721;28;20677;-69
2024/01/02 04:47:16;;;;;;;14.10;1.70;;;;;;;4.06;100.00;99894.84;4962701;28;20210;-68
2024/01/02 04:49:53;;;;;;;3.20;1.92;;;;;;;4.10;100.00;99885.41;4962766;28;20192;-66
2024/01/02 04:52:30;;;;;;;5.22;1.90;;;;;;;4.05;100.00;99883.28;4971392;28;20788;-68
2024/01/02 04:55:07;;;;;;;5.28;1.15;;;;;;;4.09;100.00;99884.56;4957949;28;20346;-67
2024/01/02 04:57:43;;;;;;;6.88;2.67;;;;;;;4.00;100.00;99882.19;4971650;28;20228;-68
2024/01/02 05:00:20;;;;;;;2.75;2.25;;;;;;;4.06;100.00;99881.44;4969129;28;20198;-69
2024/01/02 05:02:57;;;;;;;1.00;0.80;;;;;;;3.97;100.00;99871.84;4978720;28;20208;-69
2024/01/02 05:05:32;;;;;;;5.72;1.45;;;;;;;4.02;100.00;99866.78;4962996;28;20236;-68
2024/01/02 05:08:05;;;;;;;10.60;1.40;;;;;;;4.07;100.00;99861.66;4973476;28;20241;-68
2024/01/02 05:10:41;;;;;;;2.67;1.40;;;;;;;4.11;100.00;99861.13;4975611;28;20203;-69
2024/01/02 05:13:14;;;;;;;5.05;2.03;;;;;;;4.11;100.00;99844.25;4965247;28;20202;-67
2024/01/02 05:15:50;;;;;;;0.93;0.80;;;;;;;4.06;100.00;99836.78;4969257;28;20223;-68
2024/01/02 05:18:28;;;;;;;1.48;1.38;;;;;;;4.14;100.00;99833.16;4973684;28;20187;-67
2024/01/02 05:21:01;;;;;;;4.35;1.60;;;;;;;4.02;100.00;99829.28;4967512;28;20699;-67
2024/01/02 05:23:45;;;;;;;3.50;1.17;;;;;;;4.10;100.00;99829.19;4971347;28;20285;-68
2024/01/02 05:26:20;;;;;;;0.90;0.80;;;;;;;4.09;100.00;99831.03;4968950;28;20232;-68
2024/01/02 05:29:01;;;;;;;2.15;1.25;;;;;;;4.03;100.00;99826.41;4968847;28;20192;-68
2024/01/02 05:31:40;;;;;;;3.95;2.00;;;;;;;4.11;100.00;99828.19;4964714;28;20285;-68
2024/01/02 05:34:14;;;;;;;2.85;1.65;;;;;;;4.10;100.00;99827.34;4963225;28;20254;-68
2024/01/02 05:36:51;;;;;;;5.97;2.28;;;;;;;3.99;100.00;99819.78;4961975;28;20215;-68
2024/01/02 05:39:23;;;;;;;0.80;0.60;;;;;;;4.04;100.00;99812.03;4968845;28;20194;-67
2024/01/02 05:42:03;;;;;;;2.30;1.73;;;;;;;4.11;100.00;99815.63;4974386;28;20191;-68
2024/01/02 05:44:35;;;;;;;2.05;0.68;;;;;;;3.94;100.00;99808.78;4968452;28;20676;-68
2024/01/02 05:47:11;;;;;;;3.50;2.05;;;;;;;4.01;100.00;99803.53;4969769;28;20191;-67
2024/01/02 05:49:45;;;;;;;1.10;0.80;;;;;;;4.20;100.00;99802.97;4953990;28;20223;-68
2024/01/02 05:52:21;;;;;;;1.50;1.25;;;;;;;4.16;100.00;99801.69;4969555;28;20631;-66
2024/01/02 05:54:55;;;;;;;1.38;1.13;;;;;;;4.23;100.00;99806.09;4958788;28;20209;-69
2024/01/02 05:57:29;;;;;;;0.90;0.70;;;;;;;4.21;100.00;99801.94;4971850;28;20241;-68
2024/01/02 06:00:07;;;;;;;1.20;1.10;;;;;;;4.24;100.00;99797.03;4972294;28;20278;-68
2024/01/02 06:02:46;;;;;;;7.07;0.95;;;;;;;4.26;100.00;99794.19;4963327;28;20192;-69
2024/01/02 06:05:19;;;;;;;1.10;1.00;;;;;;;4.24;100.00;99785.50;4966836;28;20634;-67
2024/01/02 06:08:03;;;;;;;2.40;1.15;;;;;;;4.24;100.00;99772.94;4965644;28;20192;-67
2024/01/02 06:10:42;;;;;;;0.90;0.73;;;;;;;4.09;100.00;99761.44;4966529;28;20198;-68
2024/01/02 06:13:21;;;;;;;1.70;0.82;;;;;;;4.16;100.00;99765.03;4970976;28;20198;-66
2024/01/02 06:15:57;;;;;;;1.48;0.75;;;;;;;4.20;100.00;99755.59;4958382;28;20251;-68
2024/01/02 06:18:53;;;;;;;1.42;0.82;;;;;;;4.35;100.00;99751.03;4961114;28;20223;-67
2024/01/02 06:21:26;;;;;;;3.50;2.33;;;;;;;4.27;100.00;99737.72;4964449;28;20295;-68
2024/01/02 06:24:03;;;;;;;1.20;0.70;;;;;;;4.25;100.00;99745.16;4964880;28;20199;-68
2024/01/02 06:26:39;;;;;;;1.05;0.95;;;;;;;4.29;100.00;99737.56;4961432;28;20716;-67
2024/01/02 06:29:16;;;;;;;1.55;0.95;;;;;;;4.36;100.00;99741.13;4959707;28;20202;-67
2024/01/02 06:32:03;;;;;;;2.40;1.23;;;;;;;4.37;100.00;99732.91;4961537;28;20278;-67
2024/01/02 06:34:42;;;;;;;0.90;0.60;;;;;;;4.31;100.00;99727.47;4966716;28;20273;-65
2024/01/02 06:37:19;;;;;;;1.23;1.10;;;;;;;4.30;100.00;99728.50;4972134;28;20274;-68
2024/01/02 06:39:56;;;;;;;2.47;1.75;;;;;;;4.37;100.00;99721.34;4958170;28;20206;-67
2024/01/02 06:42:32;;;;;;;9.45;1.42;;;;;;;4.30;100.00;99720.47;4965109;28;20192;-67
2024/01/02 06:45:05;;;;;;;3.35;2.15;;;;;;;4.43;100.00;99725.97;4969528;28;20246;-68
2024/01/02 06:47:39;;;;;;;1.10;0.90;;;;;;;4.45;100.00;99723.09;4970001;28;20636;-65
2024/01/02 06:50:17;;;;;;;1.30;0.80;;;;;;;4.46;100.00;99717.53;4959400;28;20647;-68
2024/01/02 06:52:54;;;;;;;3.22;1.58;;;;;;;4.53;100.00;99717.59;4966466;28;20738;-68
2024/01/02 06:55:28;;;;;;;3.28;2.97;;;;;;;4.49;100.00;99719.84;4967751;28;20234;-67
2024/01/02 06:58:02;;;;;;;3.03;1.75;;;;;;;4.56;100.00;99719.88;4958804;28;20216;-68
2024/01/02 07:00:37;;;;;;;5.85;1.00;;;;;;;4.54;100.00;99721.94;4970497;28;20238;-67
2024/01/02 07:03:09;;;;;;;2.88;1.25;;;;;;;4.54;100.00;99725.47;4968709;28;20293;-68
2024/01/02 07:05:49;;;;;;;2.85;1.50;;;;;;;4.52;100.00;99716.78;4963560;28;20281;-68
2024/01/02 07:08:24;;;;;;;1.50;1.33;;;;;;;4.62;100.00;99717.28;4970640;28;20201;-66
2024/01/02 07:10:58;;;;;;;4.45;1.80;;;;;;;4.55;100.00;99708.34;4964028;28;20301;-68
2024/01/02 07:13:31;;;;;;;1.55;0.70;;;;;;;4.65;100.00;99708.00;4963353;28;20190;-68
2024/01/02 07:16:06;;;;;;;1.20;0.88;;;;;;;4.57;100.00;99708.16;4967919;28;20584;-67
2024/01/02 07:18:42;;;;;;;4.57;2.00;;;;;;;4.60;100.00;99708.59;4951290;28;20236;-66
2024/01/02 07:21:24;;;;;;;1.90;1.58;;;;;;;4.67;100.00;99704.13;4964472;28;20223;-69
2024/01/02 07:24:02;;;;;;;2.58;2.20;;;;;;;4.69;100.00;99699.44;4972196;28;20209;-67
2024/01/02 07:26:41;;;;;;;0.80;0.60;;;;;;;4.67;100.00;99688.06;4967475;28;20598;-67
2024/01/02 07:29:17;;;;;;;1.70;0.88;;;;;;;4.77;100.00;99685.03;4970263;28;20271;-68
2024/01/02 07:31:52;;;;;;;2.75;1.40;;;;;;;4.74;100.00;99675.53;4970378;28;20200;-68
2024/01/02 07:34:28;;;;;;;5.88;2.55;;;;;;;4.69;100.00;99666.44;4960997;28;20210;-68
2024/01/02 07:37:03;;;;;;;2.40;1.02;;;;;;;4.69;100.00;99661.91;4962174;28;20218;-68
2024/01/02 07:39:37;;;;;;;3.10;1.00;;;;;;;4.81;100.00;99663.00;4963238;28;20195;-67
2024/01/02 07:42:12;;;;;;;1.52;1.30;;;;;;;4.72;100.00;99658.81;4964320;28;20191;-67
2024/01/02 07:44:49;;;;;;;1.85;1.33;;;;;;;4.85;100.00;99649.22;4972387;28;20203;-67
2024/01/02 07:47:34;;;;;;;4.57;1.63;;;;;;;4.84;100.00;99648.41;4959499;28;20195;-66
2024/01/02 07:50:09;;;;;;;1.75;1.30;;;;;;;4.72;100.00;99648.09;4955517;28;20748;-68
2024/01/02 07:52:47;;;;;;;7.32;1.13;;;;;;;4.81;100.00;99641.56;4967291;28;20288;-68
2024/01/02 07:55:21;;;;;;;0.85;0.60;;;;;;;4.91;100.00;99635.03;4973876;28;20298;-68
2024/01/02 07:57:55;;;;;;;1.55;1.45;;;;;;;4.93;100.00;99633.00;4984798;28;20208;-68
2024/01/02 08:00:29;;;;;;;4.85;1.45;;;;;;;4.96;100.00;99628.06;4989191;28;20211;-67
2024/01/02 08:03:05;;;;;;;1.67;1.58;;;;;;;4.88;100.00;99622.88;4962997;28;20191;-67
2024/01/02 08:05:41;;;;;;;1.60;1.50;;;;;;;4.86;100.00;99618.72;4972424;28;20215;-68
2024/01/02 08:08:19;;;;;;;1.50;1.10;;;;;;;4.93;100.00;99619.59;4974296;28;20211;-68
2024/01/02 08:10:57;;;;;;;4.63;1.30;;;;;;;4.84;100.00;99613.56;4968050;28;20627;-68
2024/01/02 08:13:31;;;;;;;1.00;0.90;;;;;;;4.97;100.00;99607.44;4953424;28;20254;-66
2024/01/02 08:16:05;;;;;;;2.42;1.30;;;;;;;4.92;100.00;99608.03;4968047;28;20223;-68
2024/01/02 08:18:43;;;;;;;1.35;1.25;;;;;;;5.02;100.00;99599.66;4967427;28;20211;-68
2024/01/02 08:21:17;;;;;;;0.90;0.80;;;;;;;5.04;100.00;99594.91;4963642;28;20191;-68
2024/01/02 08:23:54;;;;;;;1.45;1.08;;;;;;;5.07;100.00;99591.84;4966425;28;20196;-69
2024/01/02 08:26:31;;;;;;;5.47;1.92;;;;;;;5.02;100.00;99591.59;4978695;28;20286;-67
2024/01/02 08:29:06;;;;;;;0.98;0.88;;;;;;;5.19;100.00;99580.34;4965333;28;20192;-69
2024/01/02 08:31:44;;;;;;;1.45;1.35;;;;;;;5.28;100.00;99578.31;4973882;28;20203;-67
2024/01/02 08:34:18;;;;;;;1.55;1.00;;;;;;;5.40;100.00;99571.34;4971326;28;20705;-68
2024/01/02 08:36:51;;;;;;;1.42;0.80;;;;;;;5.34;100.00;99568.63;4971182;28;20223;-68
2024/01/02 08:39:27;;;;;;;0.85;0.50;;;;;;;5.33;100.00;99575.84;4962866;28;20215;-68
2024/01/02 08:42:00;;;;;;;0.90;0.70;;;;;;;5.34;100.00;99572.16;4968324;28;20192;-69
2024/01/02 08:44:36;;;;;;;37.90;5.10;;;;;;;5.32;100.00;99571.53;4972992;28;20278;-68
2024/01/02 08:47:13;;;;;;;0.90;0.75;;;;;;;5.27;100.00;99563.25;4963942;28;20230;-67
2024/01/02 08:49:48;;;;;;;1.50;0.90;;;;;;;5.32;100.00;99555.44;4974519;28;20618;-68
2024/01/02 08:52:22;;;;;;;4.10;1.83;;;;;;;5.33;100.00;99549.03;4973096;28;20204;-67
2024/01/02 08:55:02;;;;;;;1.10;1.00;;;;;;;5.28;100.00;99548.00;4971294;28;20295;-68
2024/01/02 08:57:37;;;;;;;1.85;1.63;;;;;;;5.24;100.00;99547.56;4972178;28;20226;-67
2024/01/02 09:00:14;;;;;;;1.00;0.80;;;;;;;5.39;100.00;99542.03;4970285;28;20209;-68
2024/01/02 09:02:50;;;;;;;1.50;1.00;;;;;;;5.28;100.00;99538.06;4957180;28;20200;-69
2024/01/02 09:05:27;;;;;;;1.90;1.42;;;;;;;5.38;100.00;99538.53;4971075;28;20219;-67
2024/01/02 09:08:05;;;;;;;0.90;0.60;;;;;;;5.30;100.00;99529.84;4967251;28;20201;-68
2024/01/02 09:10:44;;;;;;;1.80;1.35;;;;;;;5.43;100.00;99530.69;4967801;28;20550;-67
2024/01/02 09:13:19;;;;;;;0.80;0.50;;;;;;;5.44;100.00;99532.38;4965474;28;20199;-67
2024/01/02 09:15:57;;;;;;;0.93;0.70;;;;;;;5.54;100.00;99519.38;4981811;28;20270;-68
2024/01/02 09:18:37;;;;;;;1.00;0.70;;;;;;;5.44;100.00;99516.25;4973614;28;20223;-68
2024/01/02 09:21:11;;;;;;;0.80;0.50;;;;;;;5.44;100.00;99507.38;4968801;28;20199;-66
2024/01/02 09:23:47;;;;;;;3.05;0.80;;;;;;;5.70;100.00;99499.41;4970277;28;20225;-67
2024/01/02 09:26:26;;;;;;;0.90;0.70;;;;;;;5.72;100.00;99507.22;4971900;28;20220;-67
2024/01/02 09:28:58;;;;;;;3.53;2.15;;;;;;;5.60;100.00;99502.47;4970504;28;20207;-68
2024/01/02 09:31:38;;;;;;;3.63;1.73;;;;;;;5.54;100.00;99499.78;4962411;28;20633;-68
2024/01/02 09:34:11;;;;;;;2.20;1.45;;;;;;;5.62;100.00;99496.88;4962267;28;20204;-67
2024/01/02 09:36:53;;;;;;;2.00;1.35;;;;;;;5.61;100.00;99495.25;4966849;28;20317;-67
2024/01/02 09:39:28;;;;;;;1.42;1.05;;;;;;;5.70;100.00;99488.66;4968955;28;20208;-66
2024/01/02 09:42:29;;;;;;;0.80;0.50;;;;;;;5.48;100.00;99485.31;4967590;28;20294;-68
2024/01/02 09:45:19;;;;;;;1.13;1.02;;;;;;;5.55;100.00;99485.34;4965690;28;20215;-69
2024/01/02 09:48:18;;;;;;;4.32;1.25;;;;;;;5.61;100.00;99485.38;4970478;28;20298;-66
2024/01/02 09:51:10;;;;;;;1.98;1.73;;;;;;;5.59;100.00;99474.00;4971240;28;20207;-68
2024/01/02 09:54:14;;;;;;;7.75;1.25;;;;;;;5.46;100.00;99463.25;4967723;28;20258;-68
2024/01/02 09:56:54;;;;;;;1.63;0.93;;;;;;;5.41;100.00;99462.19;4966420;28;20215;-67
2024/01/02 09:59:50;;;;;;;1.23;1.13;;;;;;;5.42;100.00;99456.59;4965043;28;20305;-68
2024/01/02 10:03:05;;;;;;;1.00;0.75;;;;;;;5.62;100.00;99446.72;4982378;28;20207;-68
2024/01/02 10:06:02;;;;;;;2.38;1.23;;;;;;;5.49;100.00;99437.84;4916346;28;20282;-67
2024/01/02 10:08:55;;;;;;;3.40;1.23;;;;;;;5.42;100.00;99431.66;4970123;28;20608;-69
2024/01/02 10:11:42;;;;;;;7.88;1.52;;;;;;;5.52;100.00;99424.00;4972742;28;20203;-69
2024/01/02 10:14:28;;;;;;;1.25;1.08;;;;;;;5.69;100.00;99426.09;4957123;28;20191;-67
2024/01/02 10:17:18;;;;;;;1.33;0.95;;;;;;;5.73;100.00;99420.31;4960912;28;20719;-68
2024/01/02 10:20:03;;;;;;;1.08;0.93;;;;;;;5.64;100.00;99428.59;4961306;28;20216;-68
2024/01/02 10:22:50;;;;;;;1.30;0.70;;;;;;;5.61;100.00;99426.31;4967976;28;20210;-68
2024/01/02 10:25:30;;;;;;;0.98;0.60;;;;;;;5.61;100.00;99417.44;4966050;28;20215;-67
2024/01/02 10:28:15;;;;;;;0.90;0.70;;;;;;;5.90;100.00;99419.75;4967503;28;20207;-68
2024/01/02 10:31:00;;;;;;;0.98;0.88;;;;;;;5.79;100.00;99404.22;4972571;28;20298;-69
2024/01/02 10:33:40;;;;;;;3.20;1.10;;;;;;;5.58;100.00;99399.88;4955582;28;20211;-69
2024/01/02 10:36:17;;;;;;;2.28;1.08;;;;;;;5.56;100.00;99390.41;4947220;28;20749;-68
2024/01/02 10:39:07;;;;;;;1.10;0.63;;;;;;;5.73;100.00;99375.53;4968126;28;20206;-67
2024/01/02 10:41:58;;;;;;;0.90;0.70;;;;;;;5.69;100.00;99358.19;4969034;28;20204;-68
2024/01/02 10:44:52;;;;;;;1.33;1.23;;;;;;;5.63;100.00;99354.47;4955025;28;20287;-68
2024/01/02 10:47:40;;;;;;;1.00;0.88;;;;;;;5.60;100.00;99340.66;4966842;28;20242;-69
2024/01/02 10:50:21;;;;;;;1.83;1.00;;;;;;;5.75;100.00;99335.88;4966373;28;20680;-66
2024/01/02 10:53:06;;;;;;;0.80;0.50;;;;;;;5.76;100.00;99331.34;4967531;28;20200;-68
2024/01/02 10:55:50;;;;;;;2.72;1.35;;;;;;;5.71;100.00;99329.28;4968220;28;20292;-67
2024/01/02 10:58:27;;;;;;;2.22;0.70;;;;;;;5.73;100.00;99329.91;4966529;28;20628;-66
2024/01/02 11:01:12;;;;;;;4.70;1.05;;;;;;;5.94;100.00;99312.75;4959320;28;20227;-68
2024/01/02 11:03:57;;;;;;;1.85;1.55;;;;;;;5.89;100.00;99305.34;4984593;28;20674;-65
2024/01/02 11:06:47;;;;;;;1.48;1.38;;;;;;;6.03;100.00;99298.06;4975176;28;20223;-67
2024/01/02 11:09:31;;;;;;;1.15;1.05;;;;;;;5.95;100.00;99283.03;4965064;28;20642;-66
2024/01/02 11:12:12;;;;;;;1.27;1.17;;;;;;;5.92;100.00;99293.34;4964114;28;20199;-66
2024/01/02 11:14:48;;;;;;;1.30;1.10;;;;;;;5.83;100.00;99276.59;4971641;28;20199;-67
2024/01/02 11:17:29;;;;;;;1.92;1.42;;;;;;;5.84;100.00;99258.66;4973731;28;20190;-66
2024/01/02 11:20:08;;;;;;;1.58;1.27;;;;;;;5.86;100.00;99253.88;4974790;28;20215;-69
2024/01/02 11:22:52;;;;;;;1.63;0.75;;;;;;;5.87;100.00;99250.19;4970290;28;20292;-68
2024/01/02 11:25:41;;;;;;;2.88;1.17;;;;;;;5.86;100.00;99243.97;4973465;28;20224;-68
2024/01/02 11:28:21;;;;;;;4.50;1.63;;;;;;;6.03;100.00;99247.03;4970245;28;20262;-67
2024/01/02 11:30:56;;;;;;;1.75;1.23;;;;;;;5.96;100.00;99240.84;4972824;28;20214;-69
2024/01/02 11:33:39;;;;;;;5.07;1.05;;;;;;;6.15;100.00;99239.94;4976794;28;20559;-68
2024/01/02 11:36:27;;;;;;;1.35;0.82;;;;;;;6.12;100.00;99235.03;4947762;29;20311;-68
2024/01/02 11:39:16;;;;;;;1.58;0.80;;;;;;;5.98;100.00;99228.06;4956109;29;20218;-67
2024/01/02 11:42:00;;;;;;;1.10;0.70;;;;;;;5.90;100.00;99234.50;4971267;28;20202;-68
2024/01/02 11:44:47;;;;;;;1.75;1.27;;;;;;;6.02;100.00;99221.22;4966735;28;20541;-68
2024/01/02 11:47:43;;;;;;;0.90;0.70;;;;;;;5.96;100.00;99214.00;4957363;28;20231;-67
2024/01/02 11:50:24;;;;;;;2.33;1.40;;;;;;;5.99;100.00;99210.91;4959073;28;20212;-69
2024/01/02 11:53:05;;;;;;;1.10;1.00;;;;;;;5.95;100.00;99210.53;4970276;28;20184;-69
2024/01/02 11:55:52;;;;;;;1.23;1.13;;;;;;;5.94;100.00;99211.56;4974749;28;20229;-67
2024/01/02 11:58:33;;;;;;;1.20;0.88;;;;;;;5.94;100.00;99206.19;4972840;28;20195;-66
2024/01/02 12:01:19;;;;;;;1.63;1.27;;;;;;;5.84;100.00;99196.91;4970581;28;20597;-67
2024/01/02 12:04:06;;;;;;;2.00;1.90;;;;;;;5.84;100.00;99183.47;4969826;28;20203;-67
2024/01/02 12:06:56;;;;;;;4.43;1.60;;;;;;;5.90;100.00;99180.00;4964672;28;20262;-68
2024/01/02 12:09:46;;;;;;;1.38;1.27;;;;;;;5.83;100.00;99185.34;4973303;28;20195;-68
2024/01/02 12:12:37;;;;;;;1.08;0.82;;;;;;;5.89;100.00;99181.84;4970007;28;20207;-68
2024/01/02 12:15:21;;;;;;;1.52;0.80;;;;;;;5.95;100.00;99164.88;4967669;28;20740;-68
2024/01/02 12:18:00;;;;;;;1.42;1.33;;;;;;;5.92;100.00;99154.56;4966452;28;20660;-67
2024/01/02 12:20:38;;;;;;;1.13;1.02;;;;;;;5.92;100.00;99148.38;4962130;28;20207;-68
2024/01/02 12:23:12;;;;;;;2.55;0.98;;;;;;;5.98;100.00;99139.47;4969286;28;20206;-67